sensor_id;sensor_type;location;lat;lon;timestamp;P1;durP1;ratioP1;P2;durP2;ratioP2
21780;SDS011;52576;53.614;9.894;2023-04-15T00:01:33;7.25;;;4.68;;
21780;SDS011;52576;53.614;9.894;2023-04-15T00:03:38;6.28;;;4.55;;
21780;SDS011;52576;53.614;9.894;2023-04-15T00:05:42;7.20;;;4.55;;
21780;SDS011;52576;53.614;9.894;2023-04-15T00:07:45;6.97;;;4.63;;
21780;SDS011;52576;53.614;9.894;2023-04-15T00:09:49;7.63;;;4.68;;
21780;SDS011;52576;53.614;9.894;2023-04-15T00:11:57;5.65;;;4.47;;
21780;SDS011;52576;53.614;9.894;2023-04-15T00:14:00;8.07;;;5.05;;
21780;SDS011;52576;53.614;9.894;2023-04-15T00:16:04;7.28;;;4.85;;
21780;SDS011;52576;53.614;9.894;2023-04-15T00:18:09;7.10;;;4.90;;
21780;SDS011;52576;53.614;9.894;2023-04-15T00:20:12;6.70;;;4.68;;
21780;SDS011;52576;53.614;9.894;2023-04-15T00:22:16;7.78;;;5.05;;
21780;SDS011;52576;53.614;9.894;2023-04-15T00:24:19;9.25;;;5.03;;
21780;SDS011;52576;53.614;9.894;2023-04-15T00:26:24;6.53;;;4.88;;
21780;SDS011;52576;53.614;9.894;2023-04-15T00:28:29;7.50;;;5.30;;
21780;SDS011;52576;53.614;9.894;2023-04-15T00:30:32;8.38;;;4.95;;
21780;SDS011;52576;53.614;9.894;2023-04-15T00:32:36;13.65;;;5.47;;
21780;SDS011;52576;53.614;9.894;2023-04-15T00:34:40;6.78;;;5.10;;
21780;SDS011;52576;53.614;9.894;2023-04-15T00:36:44;9.10;;;5.30;;
21780;SDS011;52576;53.614;9.894;2023-04-15T00:38:47;7.05;;;5.45;;
21780;SDS011;52576;53.614;9.894;2023-04-15T00:40:51;6.07;;;5.10;;
21780;SDS011;52576;53.614;9.894;2023-04-15T00:42:55;9.00;;;5.72;;
21780;SDS011;52576;53.614;9.894;2023-04-15T00:45:00;7.35;;;5.65;;
21780;SDS011;52576;53.614;9.894;2023-04-15T00:47:04;10.25;;;6.35;;
21780;SDS011;52576;53.614;9.894;2023-04-15T00:49:09;8.05;;;6.15;;
21780;SDS011;52576;53.614;9.894;2023-04-15T00:51:13;8.02;;;5.82;;
21780;SDS011;52576;53.614;9.894;2023-04-15T00:53:17;7.07;;;5.88;;
21780;SDS011;52576;53.614;9.894;2023-04-15T00:55:20;8.52;;;5.97;;
21780;SDS011;52576;53.614;9.894;2023-04-15T00:57:24;7.30;;;5.68;;
21780;SDS011;52576;53.614;9.894;2023-04-15T00:59:29;7.72;;;6.15;;
21780;SDS011;52576;53.614;9.894;2023-04-15T01:01:35;9.20;;;6.30;;
21780;SDS011;52576;53.614;9.894;2023-04-15T01:03:40;10.45;;;6.10;;
21780;SDS011;52576;53.614;9.894;2023-04-15T01:05:44;8.43;;;6.40;;
21780;SDS011;52576;53.614;9.894;2023-04-15T01:07:48;9.80;;;6.57;;
21780;SDS011;52576;53.614;9.894;2023-04-15T01:09:51;8.70;;;6.97;;
21780;SDS011;52576;53.614;9.894;2023-04-15T01:11:55;12.32;;;7.80;;
21780;SDS011;52576;53.614;9.894;2023-04-15T01:13:59;9.13;;;7.55;;
21780;SDS011;52576;53.614;9.894;2023-04-15T01:16:03;10.23;;;8.05;;
21780;SDS011;52576;53.614;9.894;2023-04-15T01:18:08;11.55;;;8.10;;
21780;SDS011;52576;53.614;9.894;2023-04-15T01:20:12;10.95;;;7.57;;
21780;SDS011;52576;53.614;9.894;2023-04-15T01:22:17;10.70;;;8.07;;
21780;SDS011;52576;53.614;9.894;2023-04-15T01:24:21;11.80;;;8.32;;
21780;SDS011;52576;53.614;9.894;2023-04-15T01:26:27;11.15;;;8.15;;
21780;SDS011;52576;53.614;9.894;2023-04-15T01:28:31;11.52;;;8.77;;
21780;SDS011;52576;53.614;9.894;2023-04-15T01:30:35;14.27;;;9.70;;
21780;SDS011;52576;53.614;9.894;2023-04-15T01:32:39;13.95;;;8.52;;
21780;SDS011;52576;53.614;9.894;2023-04-15T01:35:01;11.30;;;8.45;;
21780;SDS011;52576;53.614;9.894;2023-04-15T01:37:21;9.95;;;8.35;;
21780;SDS011;52576;53.614;9.894;2023-04-15T01:39:25;10.88;;;8.55;;
21780;SDS011;52576;53.614;9.894;2023-04-15T01:41:31;12.73;;;9.20;;
21780;SDS011;52576;53.614;9.894;2023-04-15T01:43:36;12.68;;;8.95;;
21780;SDS011;52576;53.614;9.894;2023-04-15T01:45:44;12.95;;;8.93;;
21780;SDS011;52576;53.614;9.894;2023-04-15T01:47:49;11.63;;;8.90;;
21780;SDS011;52576;53.614;9.894;2023-04-15T01:49:53;12.05;;;8.70;;
21780;SDS011;52576;53.614;9.894;2023-04-15T01:51:58;12.32;;;8.90;;
21780;SDS011;52576;53.614;9.894;2023-04-15T01:54:03;12.68;;;9.07;;
21780;SDS011;52576;53.614;9.894;2023-04-15T01:56:08;12.95;;;8.90;;
21780;SDS011;52576;53.614;9.894;2023-04-15T01:58:14;10.93;;;8.63;;
21780;SDS011;52576;53.614;9.894;2023-04-15T02:00:19;12.80;;;9.30;;
21780;SDS011;52576;53.614;9.894;2023-04-15T02:02:24;12.20;;;8.25;;
21780;SDS011;52576;53.614;9.894;2023-04-15T02:04:31;13.30;;;9.32;;
21780;SDS011;52576;53.614;9.894;2023-04-15T02:06:36;11.43;;;8.77;;
21780;SDS011;52576;53.614;9.894;2023-04-15T02:08:40;11.35;;;8.45;;
21780;SDS011;52576;53.614;9.894;2023-04-15T02:10:45;11.25;;;8.73;;
21780;SDS011;52576;53.614;9.894;2023-04-15T02:12:50;10.90;;;8.18;;
21780;SDS011;52576;53.614;9.894;2023-04-15T02:14:58;10.95;;;7.88;;
21780;SDS011;52576;53.614;9.894;2023-04-15T02:17:02;10.25;;;7.85;;
21780;SDS011;52576;53.614;9.894;2023-04-15T02:19:10;11.48;;;8.02;;
21780;SDS011;52576;53.614;9.894;2023-04-15T02:21:15;10.60;;;7.70;;
21780;SDS011;52576;53.614;9.894;2023-04-15T02:23:21;11.40;;;8.57;;
21780;SDS011;52576;53.614;9.894;2023-04-15T02:25:25;11.20;;;8.13;;
21780;SDS011;52576;53.614;9.894;2023-04-15T02:27:30;10.10;;;7.45;;
21780;SDS011;52576;53.614;9.894;2023-04-15T02:29:35;10.45;;;8.15;;
21780;SDS011;52576;53.614;9.894;2023-04-15T02:31:41;11.30;;;8.30;;
21780;SDS011;52576;53.614;9.894;2023-04-15T02:33:46;10.85;;;7.72;;
21780;SDS011;52576;53.614;9.894;2023-04-15T02:35:51;10.93;;;7.93;;
21780;SDS011;52576;53.614;9.894;2023-04-15T02:37:56;12.63;;;8.07;;
21780;SDS011;52576;53.614;9.894;2023-04-15T02:40:01;14.15;;;9.25;;
21780;SDS011;52576;53.614;9.894;2023-04-15T02:42:06;11.27;;;8.38;;
21780;SDS011;52576;53.614;9.894;2023-04-15T02:44:11;10.38;;;8.13;;
21780;SDS011;52576;53.614;9.894;2023-04-15T02:46:17;14.23;;;8.73;;
21780;SDS011;52576;53.614;9.894;2023-04-15T02:48:25;11.27;;;8.48;;
21780;SDS011;52576;53.614;9.894;2023-04-15T02:50:30;10.73;;;8.27;;
21780;SDS011;52576;53.614;9.894;2023-04-15T02:52:35;11.60;;;8.90;;
21780;SDS011;52576;53.614;9.894;2023-04-15T02:54:39;11.30;;;8.52;;
21780;SDS011;52576;53.614;9.894;2023-04-15T02:56:44;12.55;;;8.88;;
21780;SDS011;52576;53.614;9.894;2023-04-15T02:58:49;12.75;;;9.55;;
21780;SDS011;52576;53.614;9.894;2023-04-15T03:00:54;12.82;;;9.50;;
21780;SDS011;52576;53.614;9.894;2023-04-15T03:03:00;12.50;;;9.10;;
21780;SDS011;52576;53.614;9.894;2023-04-15T03:05:10;15.05;;;9.07;;
21780;SDS011;52576;53.614;9.894;2023-04-15T03:07:19;13.25;;;10.15;;
21780;SDS011;52576;53.614;9.894;2023-04-15T03:09:24;13.75;;;9.90;;
21780;SDS011;52576;53.614;9.894;2023-04-15T03:11:29;13.02;;;9.90;;
21780;SDS011;52576;53.614;9.894;2023-04-15T03:13:36;12.52;;;9.50;;
21780;SDS011;52576;53.614;9.894;2023-04-15T03:15:46;13.10;;;9.18;;
21780;SDS011;52576;53.614;9.894;2023-04-15T03:17:51;13.60;;;10.07;;
21780;SDS011;52576;53.614;9.894;2023-04-15T03:19:56;13.00;;;9.40;;
21780;SDS011;52576;53.614;9.894;2023-04-15T03:22:03;14.98;;;10.50;;
21780;SDS011;52576;53.614;9.894;2023-04-15T03:24:08;15.30;;;11.13;;
21780;SDS011;52576;53.614;9.894;2023-04-15T03:26:22;13.23;;;9.70;;
21780;SDS011;52576;53.614;9.894;2023-04-15T03:28:27;18.95;;;11.70;;
21780;SDS011;52576;53.614;9.894;2023-04-15T03:30:33;15.48;;;11.00;;
21780;SDS011;52576;53.614;9.894;2023-04-15T03:32:38;16.83;;;11.88;;
21780;SDS011;52576;53.614;9.894;2023-04-15T03:34:43;16.70;;;11.20;;
21780;SDS011;52576;53.614;9.894;2023-04-15T03:36:48;18.30;;;12.20;;
21780;SDS011;52576;53.614;9.894;2023-04-15T03:38:54;19.58;;;12.10;;
21780;SDS011;52576;53.614;9.894;2023-04-15T03:40:59;17.75;;;12.40;;
21780;SDS011;52576;53.614;9.894;2023-04-15T03:43:04;18.08;;;12.52;;
21780;SDS011;52576;53.614;9.894;2023-04-15T03:45:09;18.92;;;13.35;;
21780;SDS011;52576;53.614;9.894;2023-04-15T03:47:14;20.45;;;13.13;;
21780;SDS011;52576;53.614;9.894;2023-04-15T03:49:19;22.30;;;13.20;;
21780;SDS011;52576;53.614;9.894;2023-04-15T03:51:24;20.73;;;12.95;;
21780;SDS011;52576;53.614;9.894;2023-04-15T03:53:29;20.67;;;14.02;;
21780;SDS011;52576;53.614;9.894;2023-04-15T03:55:35;21.70;;;14.23;;
21780;SDS011;52576;53.614;9.894;2023-04-15T03:57:40;22.38;;;14.70;;
21780;SDS011;52576;53.614;9.894;2023-04-15T03:59:45;21.10;;;14.68;;
21780;SDS011;52576;53.614;9.894;2023-04-15T04:01:49;27.08;;;16.30;;
21780;SDS011;52576;53.614;9.894;2023-04-15T04:03:54;25.65;;;15.55;;
21780;SDS011;52576;53.614;9.894;2023-04-15T04:05:59;27.85;;;15.93;;
21780;SDS011;52576;53.614;9.894;2023-04-15T04:08:04;25.83;;;15.90;;
21780;SDS011;52576;53.614;9.894;2023-04-15T04:10:09;28.20;;;16.98;;
21780;SDS011;52576;53.614;9.894;2023-04-15T04:12:15;26.30;;;16.75;;
21780;SDS011;52576;53.614;9.894;2023-04-15T04:14:20;27.88;;;17.33;;
21780;SDS011;52576;53.614;9.894;2023-04-15T04:16:31;30.50;;;17.53;;
21780;SDS011;52576;53.614;9.894;2023-04-15T04:18:36;27.90;;;17.60;;
21780;SDS011;52576;53.614;9.894;2023-04-15T04:20:40;30.05;;;17.73;;
21780;SDS011;52576;53.614;9.894;2023-04-15T04:22:45;27.75;;;17.00;;
21780;SDS011;52576;53.614;9.894;2023-04-15T04:24:50;32.53;;;18.95;;
21780;SDS011;52576;53.614;9.894;2023-04-15T04:26:55;28.85;;;18.90;;
21780;SDS011;52576;53.614;9.894;2023-04-15T04:29:01;28.77;;;18.08;;
21780;SDS011;52576;53.614;9.894;2023-04-15T04:31:06;30.23;;;18.23;;
21780;SDS011;52576;53.614;9.894;2023-04-15T04:33:11;30.88;;;18.23;;
21780;SDS011;52576;53.614;9.894;2023-04-15T04:35:16;32.83;;;19.48;;
21780;SDS011;52576;53.614;9.894;2023-04-15T04:37:20;30.58;;;18.52;;
21780;SDS011;52576;53.614;9.894;2023-04-15T04:39:26;33.33;;;19.35;;
21780;SDS011;52576;53.614;9.894;2023-04-15T04:41:31;33.45;;;19.52;;
21780;SDS011;52576;53.614;9.894;2023-04-15T04:43:36;32.85;;;18.83;;
21780;SDS011;52576;53.614;9.894;2023-04-15T04:45:42;31.58;;;19.35;;
21780;SDS011;52576;53.614;9.894;2023-04-15T04:47:47;32.58;;;20.02;;
21780;SDS011;52576;53.614;9.894;2023-04-15T04:49:52;30.98;;;19.70;;
21780;SDS011;52576;53.614;9.894;2023-04-15T04:51:56;34.38;;;19.88;;
21780;SDS011;52576;53.614;9.894;2023-04-15T04:54:01;35.80;;;20.58;;
21780;SDS011;52576;53.614;9.894;2023-04-15T04:56:07;37.55;;;21.20;;
21780;SDS011;52576;53.614;9.894;2023-04-15T04:58:12;38.83;;;21.42;;
21780;SDS011;52576;53.614;9.894;2023-04-15T05:00:17;40.15;;;22.58;;
21780;SDS011;52576;53.614;9.894;2023-04-15T05:02:23;40.47;;;22.15;;
21780;SDS011;52576;53.614;9.894;2023-04-15T05:04:29;44.08;;;22.63;;
21780;SDS011;52576;53.614;9.894;2023-04-15T05:06:34;42.60;;;22.77;;
21780;SDS011;52576;53.614;9.894;2023-04-15T05:08:39;44.90;;;23.65;;
21780;SDS011;52576;53.614;9.894;2023-04-15T05:10:44;42.05;;;23.92;;
21780;SDS011;52576;53.614;9.894;2023-04-15T05:12:49;41.22;;;23.00;;
21780;SDS011;52576;53.614;9.894;2023-04-15T05:14:54;41.38;;;23.40;;
21780;SDS011;52576;53.614;9.894;2023-04-15T05:16:59;41.78;;;23.58;;
21780;SDS011;52576;53.614;9.894;2023-04-15T05:19:05;45.70;;;24.23;;
21780;SDS011;52576;53.614;9.894;2023-04-15T05:21:10;42.30;;;23.52;;
21780;SDS011;52576;53.614;9.894;2023-04-15T05:23:15;44.22;;;23.75;;
21780;SDS011;52576;53.614;9.894;2023-04-15T05:25:20;43.60;;;25.15;;
21780;SDS011;52576;53.614;9.894;2023-04-15T05:27:25;42.63;;;24.27;;
21780;SDS011;52576;53.614;9.894;2023-04-15T05:29:30;44.17;;;24.60;;
21780;SDS011;52576;53.614;9.894;2023-04-15T05:31:34;47.15;;;26.58;;
21780;SDS011;52576;53.614;9.894;2023-04-15T05:33:40;42.63;;;24.98;;
21780;SDS011;52576;53.614;9.894;2023-04-15T05:35:46;47.03;;;25.20;;
21780;SDS011;52576;53.614;9.894;2023-04-15T05:37:51;50.42;;;25.73;;
21780;SDS011;52576;53.614;9.894;2023-04-15T05:39:56;46.50;;;25.88;;
21780;SDS011;52576;53.614;9.894;2023-04-15T05:42:03;42.00;;;25.83;;
21780;SDS011;52576;53.614;9.894;2023-04-15T05:44:10;41.22;;;24.85;;
21780;SDS011;52576;53.614;9.894;2023-04-15T05:46:15;41.92;;;24.83;;
21780;SDS011;52576;53.614;9.894;2023-04-15T05:48:20;41.22;;;25.10;;
21780;SDS011;52576;53.614;9.894;2023-04-15T05:50:25;42.17;;;24.80;;
21780;SDS011;52576;53.614;9.894;2023-04-15T05:52:31;40.10;;;24.42;;
21780;SDS011;52576;53.614;9.894;2023-04-15T05:54:36;42.88;;;25.40;;
21780;SDS011;52576;53.614;9.894;2023-04-15T05:56:41;42.33;;;25.25;;
21780;SDS011;52576;53.614;9.894;2023-04-15T05:58:45;40.85;;;24.90;;
21780;SDS011;52576;53.614;9.894;2023-04-15T06:00:50;42.78;;;25.33;;
21780;SDS011;52576;53.614;9.894;2023-04-15T06:02:57;43.03;;;25.73;;
21780;SDS011;52576;53.614;9.894;2023-04-15T06:05:02;39.47;;;25.80;;
21780;SDS011;52576;53.614;9.894;2023-04-15T06:07:11;44.00;;;26.02;;
21780;SDS011;52576;53.614;9.894;2023-04-15T06:09:17;40.95;;;25.38;;
21780;SDS011;52576;53.614;9.894;2023-04-15T06:11:22;44.20;;;25.15;;
21780;SDS011;52576;53.614;9.894;2023-04-15T06:13:28;44.67;;;27.13;;
21780;SDS011;52576;53.614;9.894;2023-04-15T06:15:33;47.67;;;27.70;;
21780;SDS011;52576;53.614;9.894;2023-04-15T06:17:38;46.35;;;27.35;;
21780;SDS011;52576;53.614;9.894;2023-04-15T06:19:42;49.42;;;27.73;;
21780;SDS011;52576;53.614;9.894;2023-04-15T06:21:47;49.47;;;28.08;;
21780;SDS011;52576;53.614;9.894;2023-04-15T06:23:52;49.22;;;27.45;;
21780;SDS011;52576;53.614;9.894;2023-04-15T06:26:00;47.13;;;28.75;;
21780;SDS011;52576;53.614;9.894;2023-04-15T06:28:08;51.97;;;28.70;;
21780;SDS011;52576;53.614;9.894;2023-04-15T06:30:21;47.15;;;28.33;;
21780;SDS011;52576;53.614;9.894;2023-04-15T06:32:29;48.17;;;29.40;;
21780;SDS011;52576;53.614;9.894;2023-04-15T06:34:40;54.30;;;31.35;;
21780;SDS011;52576;53.614;9.894;2023-04-15T06:36:54;49.38;;;31.08;;
21780;SDS011;52576;53.614;9.894;2023-04-15T06:39:01;51.88;;;31.05;;
21780;SDS011;52576;53.614;9.894;2023-04-15T06:41:14;50.80;;;30.67;;
21780;SDS011;52576;53.614;9.894;2023-04-15T06:43:21;52.78;;;30.65;;
21780;SDS011;52576;53.614;9.894;2023-04-15T06:45:28;49.72;;;30.63;;
21780;SDS011;52576;53.614;9.894;2023-04-15T06:47:34;54.42;;;30.60;;
21780;SDS011;52576;53.614;9.894;2023-04-15T06:49:41;52.17;;;31.10;;
21780;SDS011;52576;53.614;9.894;2023-04-15T06:51:47;53.22;;;31.50;;
21780;SDS011;52576;53.614;9.894;2023-04-15T06:53:53;50.38;;;30.58;;
21780;SDS011;52576;53.614;9.894;2023-04-15T06:55:59;55.63;;;31.65;;
21780;SDS011;52576;53.614;9.894;2023-04-15T06:58:05;51.70;;;31.70;;
21780;SDS011;52576;53.614;9.894;2023-04-15T07:00:10;53.85;;;32.33;;
21780;SDS011;52576;53.614;9.894;2023-04-15T07:02:15;54.58;;;31.73;;
21780;SDS011;52576;53.614;9.894;2023-04-15T07:04:20;56.17;;;32.65;;
21780;SDS011;52576;53.614;9.894;2023-04-15T07:06:26;57.17;;;33.17;;
21780;SDS011;52576;53.614;9.894;2023-04-15T07:08:31;58.35;;;32.65;;
21780;SDS011;52576;53.614;9.894;2023-04-15T07:10:36;56.05;;;33.33;;
21780;SDS011;52576;53.614;9.894;2023-04-15T07:12:40;58.28;;;34.50;;
21780;SDS011;52576;53.614;9.894;2023-04-15T07:14:46;59.15;;;33.97;;
21780;SDS011;52576;53.614;9.894;2023-04-15T07:16:51;54.45;;;32.78;;
21780;SDS011;52576;53.614;9.894;2023-04-15T07:18:56;57.28;;;32.90;;
21780;SDS011;52576;53.614;9.894;2023-04-15T07:21:01;57.42;;;32.83;;
21780;SDS011;52576;53.614;9.894;2023-04-15T07:23:06;58.53;;;33.28;;
21780;SDS011;52576;53.614;9.894;2023-04-15T07:25:11;57.42;;;32.45;;
21780;SDS011;52576;53.614;9.894;2023-04-15T07:27:15;55.03;;;33.45;;
21780;SDS011;52576;53.614;9.894;2023-04-15T07:29:20;57.55;;;33.33;;
21780;SDS011;52576;53.614;9.894;2023-04-15T07:31:26;57.65;;;33.30;;
21780;SDS011;52576;53.614;9.894;2023-04-15T07:33:31;60.53;;;34.10;;
21780;SDS011;52576;53.614;9.894;2023-04-15T07:35:36;56.92;;;33.53;;
21780;SDS011;52576;53.614;9.894;2023-04-15T07:37:41;59.03;;;34.28;;
21780;SDS011;52576;53.614;9.894;2023-04-15T07:39:46;53.53;;;33.65;;
21780;SDS011;52576;53.614;9.894;2023-04-15T07:41:51;56.65;;;33.45;;
21780;SDS011;52576;53.614;9.894;2023-04-15T07:43:56;55.13;;;33.63;;
21780;SDS011;52576;53.614;9.894;2023-04-15T07:46:00;54.70;;;33.42;;
21780;SDS011;52576;53.614;9.894;2023-04-15T07:48:07;57.28;;;34.08;;
21780;SDS011;52576;53.614;9.894;2023-04-15T07:50:11;56.53;;;32.90;;
21780;SDS011;52576;53.614;9.894;2023-04-15T07:52:16;59.28;;;34.15;;
21780;SDS011;52576;53.614;9.894;2023-04-15T07:54:21;57.88;;;34.33;;
21780;SDS011;52576;53.614;9.894;2023-04-15T07:56:26;55.00;;;33.13;;
21780;SDS011;52576;53.614;9.894;2023-04-15T07:58:31;54.28;;;34.20;;
21780;SDS011;52576;53.614;9.894;2023-04-15T08:00:36;56.92;;;34.78;;
21780;SDS011;52576;53.614;9.894;2023-04-15T08:02:42;59.47;;;34.90;;
21780;SDS011;52576;53.614;9.894;2023-04-15T08:04:50;61.40;;;35.30;;
21780;SDS011;52576;53.614;9.894;2023-04-15T08:06:55;64.55;;;35.30;;
21780;SDS011;52576;53.614;9.894;2023-04-15T08:09:00;61.88;;;35.20;;
21780;SDS011;52576;53.614;9.894;2023-04-15T08:11:05;57.80;;;35.65;;
21780;SDS011;52576;53.614;9.894;2023-04-15T08:13:10;57.42;;;33.58;;
21780;SDS011;52576;53.614;9.894;2023-04-15T08:15:15;61.40;;;34.78;;
21780;SDS011;52576;53.614;9.894;2023-04-15T08:17:20;58.63;;;35.47;;
21780;SDS011;52576;53.614;9.894;2023-04-15T08:19:25;54.35;;;34.22;;
21780;SDS011;52576;53.614;9.894;2023-04-15T08:21:31;59.75;;;35.78;;
21780;SDS011;52576;53.614;9.894;2023-04-15T08:23:36;57.08;;;35.20;;
21780;SDS011;52576;53.614;9.894;2023-04-15T08:25:41;58.63;;;35.60;;
21780;SDS011;52576;53.614;9.894;2023-04-15T08:27:45;56.78;;;35.50;;
21780;SDS011;52576;53.614;9.894;2023-04-15T08:29:50;59.53;;;36.58;;
21780;SDS011;52576;53.614;9.894;2023-04-15T08:31:56;59.17;;;37.22;;
21780;SDS011;52576;53.614;9.894;2023-04-15T08:34:01;63.25;;;37.30;;
21780;SDS011;52576;53.614;9.894;2023-04-15T08:36:06;60.80;;;36.20;;
21780;SDS011;52576;53.614;9.894;2023-04-15T08:38:12;60.00;;;35.15;;
21780;SDS011;52576;53.614;9.894;2023-04-15T08:40:17;59.97;;;35.95;;
21780;SDS011;52576;53.614;9.894;2023-04-15T08:42:25;59.90;;;36.50;;
21780;SDS011;52576;53.614;9.894;2023-04-15T08:44:34;58.47;;;35.97;;
21780;SDS011;52576;53.614;9.894;2023-04-15T08:46:40;60.33;;;36.58;;
21780;SDS011;52576;53.614;9.894;2023-04-15T08:48:46;58.17;;;35.72;;
21780;SDS011;52576;53.614;9.894;2023-04-15T08:50:52;56.88;;;36.75;;
21780;SDS011;52576;53.614;9.894;2023-04-15T08:52:58;55.80;;;34.97;;
21780;SDS011;52576;53.614;9.894;2023-04-15T08:55:05;58.22;;;35.15;;
21780;SDS011;52576;53.614;9.894;2023-04-15T08:57:12;58.58;;;35.15;;
21780;SDS011;52576;53.614;9.894;2023-04-15T08:59:18;58.35;;;35.63;;
21780;SDS011;52576;53.614;9.894;2023-04-15T09:01:24;58.30;;;35.05;;
21780;SDS011;52576;53.614;9.894;2023-04-15T09:03:29;58.60;;;35.60;;
21780;SDS011;52576;53.614;9.894;2023-04-15T09:05:36;57.88;;;35.47;;
21780;SDS011;52576;53.614;9.894;2023-04-15T09:07:41;58.15;;;35.60;;
21780;SDS011;52576;53.614;9.894;2023-04-15T09:09:47;57.85;;;35.15;;
21780;SDS011;52576;53.614;9.894;2023-04-15T09:11:53;54.38;;;35.00;;
21780;SDS011;52576;53.614;9.894;2023-04-15T09:13:58;53.90;;;34.38;;
21780;SDS011;52576;53.614;9.894;2023-04-15T09:16:04;52.53;;;34.47;;
21780;SDS011;52576;53.614;9.894;2023-04-15T09:18:10;59.22;;;35.28;;
21780;SDS011;52576;53.614;9.894;2023-04-15T09:20:15;53.92;;;34.05;;
21780;SDS011;52576;53.614;9.894;2023-04-15T09:22:21;57.85;;;35.10;;
21780;SDS011;52576;53.614;9.894;2023-04-15T09:24:32;55.95;;;34.13;;
21780;SDS011;52576;53.614;9.894;2023-04-15T09:26:40;56.17;;;34.47;;
21780;SDS011;52576;53.614;9.894;2023-04-15T09:28:47;55.03;;;33.35;;
21780;SDS011;52576;53.614;9.894;2023-04-15T09:30:54;56.78;;;33.22;;
21780;SDS011;52576;53.614;9.894;2023-04-15T09:33:00;53.58;;;33.88;;
21780;SDS011;52576;53.614;9.894;2023-04-15T09:35:10;54.92;;;33.47;;
21780;SDS011;52576;53.614;9.894;2023-04-15T09:37:16;52.55;;;32.97;;
21780;SDS011;52576;53.614;9.894;2023-04-15T09:39:47;59.00;;;36.17;;
21780;SDS011;52576;53.614;9.894;2023-04-15T09:42:04;55.45;;;34.72;;
21780;SDS011;52576;53.614;9.894;2023-04-15T09:44:22;58.72;;;34.13;;
21780;SDS011;52576;53.614;9.894;2023-04-15T09:46:40;56.72;;;36.85;;
21780;SDS011;52576;53.614;9.894;2023-04-15T09:48:45;61.38;;;37.80;;
21780;SDS011;52576;53.614;9.894;2023-04-15T09:50:50;55.85;;;36.83;;
21780;SDS011;52576;53.614;9.894;2023-04-15T09:52:55;57.13;;;36.25;;
21780;SDS011;52576;53.614;9.894;2023-04-15T09:55:01;58.47;;;36.90;;
21780;SDS011;52576;53.614;9.894;2023-04-15T09:57:06;56.95;;;34.90;;
21780;SDS011;52576;53.614;9.894;2023-04-15T09:59:12;55.55;;;33.35;;
21780;SDS011;52576;53.614;9.894;2023-04-15T10:01:19;52.60;;;34.38;;
21780;SDS011;52576;53.614;9.894;2023-04-15T10:03:25;52.63;;;33.50;;
21780;SDS011;52576;53.614;9.894;2023-04-15T10:05:32;51.67;;;32.22;;
21780;SDS011;52576;53.614;9.894;2023-04-15T10:07:38;49.75;;;33.22;;
21780;SDS011;52576;53.614;9.894;2023-04-15T10:09:44;46.13;;;31.17;;
21780;SDS011;52576;53.614;9.894;2023-04-15T10:11:50;46.13;;;31.42;;
21780;SDS011;52576;53.614;9.894;2023-04-15T10:13:55;47.25;;;31.73;;
21780;SDS011;52576;53.614;9.894;2023-04-15T10:16:03;46.33;;;30.73;;
21780;SDS011;52576;53.614;9.894;2023-04-15T10:18:11;43.80;;;29.33;;
21780;SDS011;52576;53.614;9.894;2023-04-15T10:20:19;50.78;;;30.02;;
21780;SDS011;52576;53.614;9.894;2023-04-15T10:22:25;50.15;;;30.27;;
21780;SDS011;52576;53.614;9.894;2023-04-15T10:24:31;47.08;;;32.17;;
21780;SDS011;52576;53.614;9.894;2023-04-15T10:26:36;45.92;;;30.50;;
21780;SDS011;52576;53.614;9.894;2023-04-15T10:28:41;47.00;;;31.25;;
21780;SDS011;52576;53.614;9.894;2023-04-15T10:30:46;45.22;;;29.65;;
21780;SDS011;52576;53.614;9.894;2023-04-15T10:32:52;43.42;;;28.80;;
21780;SDS011;52576;53.614;9.894;2023-04-15T10:34:58;40.92;;;27.67;;
21780;SDS011;52576;53.614;9.894;2023-04-15T10:37:04;40.10;;;27.30;;
21780;SDS011;52576;53.614;9.894;2023-04-15T10:41:43;39.97;;;28.15;;
21780;SDS011;52576;53.614;9.894;2023-04-15T10:43:48;44.95;;;28.65;;
21780;SDS011;52576;53.614;9.894;2023-04-15T10:45:54;43.80;;;26.98;;
21780;SDS011;52576;53.614;9.894;2023-04-15T10:48:00;42.80;;;28.23;;
21780;SDS011;52576;53.614;9.894;2023-04-15T10:50:08;44.70;;;28.63;;
21780;SDS011;52576;53.614;9.894;2023-04-15T10:52:13;40.25;;;27.30;;
21780;SDS011;52576;53.614;9.894;2023-04-15T10:54:29;37.85;;;24.60;;
21780;SDS011;52576;53.614;9.894;2023-04-15T10:56:36;34.22;;;23.40;;
21780;SDS011;52576;53.614;9.894;2023-04-15T10:58:41;38.78;;;23.45;;
21780;SDS011;52576;53.614;9.894;2023-04-15T11:00:48;28.00;;;20.45;;
21780;SDS011;52576;53.614;9.894;2023-04-15T11:02:55;30.05;;;20.02;;
21780;SDS011;52576;53.614;9.894;2023-04-15T11:05:01;26.75;;;19.63;;
21780;SDS011;52576;53.614;9.894;2023-04-15T11:07:07;26.27;;;19.60;;
21780;SDS011;52576;53.614;9.894;2023-04-15T11:09:29;27.90;;;18.10;;
21780;SDS011;52576;53.614;9.894;2023-04-15T11:14:13;20.25;;;15.18;;
21780;SDS011;52576;53.614;9.894;2023-04-15T11:16:19;24.20;;;14.52;;
21780;SDS011;52576;53.614;9.894;2023-04-15T11:18:25;21.33;;;14.07;;
21780;SDS011;52576;53.614;9.894;2023-04-15T11:20:32;20.70;;;14.80;;
21780;SDS011;52576;53.614;9.894;2023-04-15T11:22:38;21.02;;;15.25;;
21780;SDS011;52576;53.614;9.894;2023-04-15T11:24:51;21.40;;;15.00;;
21780;SDS011;52576;53.614;9.894;2023-04-15T11:26:56;16.02;;;12.15;;
21780;SDS011;52576;53.614;9.894;2023-04-15T11:29:01;18.35;;;11.80;;
21780;SDS011;52576;53.614;9.894;2023-04-15T11:31:08;14.80;;;10.88;;
21780;SDS011;52576;53.614;9.894;2023-04-15T11:33:14;16.42;;;10.85;;
21780;SDS011;52576;53.614;9.894;2023-04-15T11:35:19;13.63;;;10.18;;
21780;SDS011;52576;53.614;9.894;2023-04-15T11:37:28;16.38;;;10.57;;
21780;SDS011;52576;53.614;9.894;2023-04-15T11:39:35;15.05;;;10.75;;
21780;SDS011;52576;53.614;9.894;2023-04-15T11:41:40;17.05;;;10.27;;
21780;SDS011;52576;53.614;9.894;2023-04-15T11:43:46;15.05;;;10.35;;
21780;SDS011;52576;53.614;9.894;2023-04-15T11:45:51;14.82;;;10.75;;
21780;SDS011;52576;53.614;9.894;2023-04-15T11:48:04;14.38;;;10.52;;
21780;SDS011;52576;53.614;9.894;2023-04-15T11:50:12;14.85;;;10.50;;
21780;SDS011;52576;53.614;9.894;2023-04-15T11:52:17;14.32;;;10.10;;
21780;SDS011;52576;53.614;9.894;2023-04-15T11:54:20;14.27;;;10.38;;
21780;SDS011;52576;53.614;9.894;2023-04-15T11:56:25;13.20;;;10.00;;
21780;SDS011;52576;53.614;9.894;2023-04-15T11:58:29;12.05;;;8.82;;
21780;SDS011;52576;53.614;9.894;2023-04-15T12:00:33;13.48;;;9.95;;
21780;SDS011;52576;53.614;9.894;2023-04-15T12:02:37;11.90;;;9.20;;
21780;SDS011;52576;53.614;9.894;2023-04-15T12:04:42;13.55;;;9.52;;
21780;SDS011;52576;53.614;9.894;2023-04-15T12:06:47;12.90;;;9.20;;
21780;SDS011;52576;53.614;9.894;2023-04-15T12:08:51;10.77;;;8.75;;
21780;SDS011;52576;53.614;9.894;2023-04-15T12:11:06;12.57;;;9.15;;
21780;SDS011;52576;53.614;9.894;2023-04-15T12:13:11;12.13;;;8.93;;
21780;SDS011;52576;53.614;9.894;2023-04-15T12:15:14;13.65;;;9.32;;
21780;SDS011;52576;53.614;9.894;2023-04-15T12:17:18;18.55;;;10.30;;
21780;SDS011;52576;53.614;9.894;2023-04-15T12:19:22;14.45;;;9.40;;
21780;SDS011;52576;53.614;9.894;2023-04-15T12:21:32;12.02;;;9.32;;
21780;SDS011;52576;53.614;9.894;2023-04-15T12:23:37;14.82;;;9.40;;
21780;SDS011;52576;53.614;9.894;2023-04-15T12:25:42;15.45;;;9.77;;